sensor_id;sensor_type;location;lat;lon;timestamp;temperature;humidity
22081;DHT22;11207;59.512;18.050;2022-07-29T00:01:20;11.00;99.90
22081;DHT22;11207;59.512;18.050;2022-07-29T00:03:46;10.90;99.90
22081;DHT22;11207;59.512;18.050;2022-07-29T00:06:12;10.80;99.90
22081;DHT22;11207;59.512;18.050;2022-07-29T00:08:37;10.80;99.90
22081;DHT22;11207;59.512;18.050;2022-07-29T00:11:03;10.80;99.90
22081;DHT22;11207;59.512;18.050;2022-07-29T00:13:29;11.00;99.90
22081;DHT22;11207;59.512;18.050;2022-07-29T00:15:55;10.90;99.90
22081;DHT22;11207;59.512;18.050;2022-07-29T00:18:20;10.90;99.90
22081;DHT22;11207;59.512;18.050;2022-07-29T00:20:46;10.90;99.90
22081;DHT22;11207;59.512;18.050;2022-07-29T00:23:11;10.90;99.90
22081;DHT22;11207;59.512;18.050;2022-07-29T00:25:37;10.80;99.90
22081;DHT22;11207;59.512;18.050;2022-07-29T00:28:03;10.80;99.90
22081;DHT22;11207;59.512;18.050;2022-07-29T00:30:28;10.70;99.90
22081;DHT22;11207;59.512;18.050;2022-07-29T00:32:54;10.70;99.90
22081;DHT22;11207;59.512;18.050;2022-07-29T00:35:20;10.70;99.90
22081;DHT22;11207;59.512;18.050;2022-07-29T00:38:04;10.60;99.90
22081;DHT22;11207;59.512;18.050;2022-07-29T00:40:29;10.60;99.90
22081;DHT22;11207;59.512;18.050;2022-07-29T00:42:55;10.60;99.90
22081;DHT22;11207;59.512;18.050;2022-07-29T00:45:20;10.60;99.90
22081;DHT22;11207;59.512;18.050;2022-07-29T00:47:47;10.60;99.90
22081;DHT22;11207;59.512;18.050;2022-07-29T00:50:13;10.60;99.90
22081;DHT22;11207;59.512;18.050;2022-07-29T00:52:40;10.60;99.90
22081;DHT22;11207;59.512;18.050;2022-07-29T00:55:09;10.50;99.90
22081;DHT22;11207;59.512;18.050;2022-07-29T00:57:35;10.50;99.90
22081;DHT22;11207;59.512;18.050;2022-07-29T01:00:04;10.50;99.90
22081;DHT22;11207;59.512;18.050;2022-07-29T01:02:30;10.50;99.90
22081;DHT22;11207;59.512;18.050;2022-07-29T01:04:56;10.50;99.90
22081;DHT22;11207;59.512;18.050;2022-07-29T01:07:24;10.60;99.90
22081;DHT22;11207;59.512;18.050;2022-07-29T01:09:51;10.50;99.90
22081;DHT22;11207;59.512;18.050;2022-07-29T01:12:23;10.40;99.90
22081;DHT22;11207;59.512;18.050;2022-07-29T01:14:50;10.40;99.90
22081;DHT22;11207;59.512;18.050;2022-07-29T01:25:30;10.30;99.90
22081;DHT22;11207;59.512;18.050;2022-07-29T01:30:56;10.20;99.90
22081;DHT22;11207;59.512;18.050;2022-07-29T01:33:22;10.10;99.90
22081;DHT22;11207;59.512;18.050;2022-07-29T01:36:13;10.10;99.90
22081;DHT22;11207;59.512;18.050;2022-07-29T01:38:41;10.00;99.90
22081;DHT22;11207;59.512;18.050;2022-07-29T01:41:16;10.10;99.90
22081;DHT22;11207;59.512;18.050;2022-07-29T01:43:57;10.10;99.90
22081;DHT22;11207;59.512;18.050;2022-07-29T01:46:40;10.10;99.90
22081;DHT22;11207;59.512;18.050;2022-07-29T01:51:47;10.10;99.90
22081;DHT22;11207;59.512;18.050;2022-07-29T01:54:19;10.10;99.90
22081;DHT22;11207;59.512;18.050;2022-07-29T01:56:48;10.10;99.90
22081;DHT22;11207;59.512;18.050;2022-07-29T01:59:16;10.10;99.90
22081;DHT22;11207;59.512;18.050;2022-07-29T02:01:44;10.00;99.90
22081;DHT22;11207;59.512;18.050;2022-07-29T02:04:12;10.00;99.90
22081;DHT22;11207;59.512;18.050;2022-07-29T02:06:40;10.00;99.90
22081;DHT22;11207;59.512;18.050;2022-07-29T02:09:10;10.00;99.90
22081;DHT22;11207;59.512;18.050;2022-07-29T02:11:38;10.00;99.90
22081;DHT22;11207;59.512;18.050;2022-07-29T02:14:05;9.90;99.90
22081;DHT22;11207;59.512;18.050;2022-07-29T02:16:33;9.90;99.90
22081;DHT22;11207;59.512;18.050;2022-07-29T02:19:02;9.90;99.90
22081;DHT22;11207;59.512;18.050;2022-07-29T02:21:29;9.90;99.90
22081;DHT22;11207;59.512;18.050;2022-07-29T02:23:59;9.90;99.90
22081;DHT22;11207;59.512;18.050;2022-07-29T02:26:25;9.80;99.90
22081;DHT22;11207;59.512;18.050;2022-07-29T02:28:53;9.90;99.90
22081;DHT22;11207;59.512;18.050;2022-07-29T02:31:26;9.80;99.90
22081;DHT22;11207;59.512;18.050;2022-07-29T02:33:52;9.80;99.90
22081;DHT22;11207;59.512;18.050;2022-07-29T02:36:21;9.80;99.90
22081;DHT22;11207;59.512;18.050;2022-07-29T02:38:48;9.70;99.90
22081;DHT22;11207;59.512;18.050;2022-07-29T02:41:23;9.80;99.90
22081;DHT22;11207;59.512;18.050;2022-07-29T02:43:53;9.80;99.90
22081;DHT22;11207;59.512;18.050;2022-07-29T02:46:30;9.70;99.90
22081;DHT22;11207;59.512;18.050;2022-07-29T02:49:27;9.70;99.90
22081;DHT22;11207;59.512;18.050;2022-07-29T02:52:00;9.80;99.90
22081;DHT22;11207;59.512;18.050;2022-07-29T02:56:58;9.80;99.90
22081;DHT22;11207;59.512;18.050;2022-07-29T02:59:27;9.80;99.90
22081;DHT22;11207;59.512;18.050;2022-07-29T03:01:55;9.90;99.90
22081;DHT22;11207;59.512;18.050;2022-07-29T03:04:24;9.80;99.90
22081;DHT22;11207;59.512;18.050;2022-07-29T03:06:52;9.80;99.90
22081;DHT22;11207;59.512;18.050;2022-07-29T03:09:18;9.80;99.90
22081;DHT22;11207;59.512;18.050;2022-07-29T03:11:45;9.70;99.90
22081;DHT22;11207;59.512;18.050;2022-07-29T03:14:11;9.70;99.90
22081;DHT22;11207;59.512;18.050;2022-07-29T03:16:37;9.60;99.90
22081;DHT22;11207;59.512;18.050;2022-07-29T03:19:04;9.60;99.90
22081;DHT22;11207;59.512;18.050;2022-07-29T03:21:30;9.70;99.90
22081;DHT22;11207;59.512;18.050;2022-07-29T03:23:56;9.60;99.90
22081;DHT22;11207;59.512;18.050;2022-07-29T03:26:21;9.60;99.90
22081;DHT22;11207;59.512;18.050;2022-07-29T03:28:47;9.70;99.90
22081;DHT22;11207;59.512;18.050;2022-07-29T03:31:13;9.70;99.90
22081;DHT22;11207;59.512;18.050;2022-07-29T03:33:38;9.80;99.90
22081;DHT22;11207;59.512;18.050;2022-07-29T03:36:04;9.70;99.90
22081;DHT22;11207;59.512;18.050;2022-07-29T03:38:32;9.80;99.90
22081;DHT22;11207;59.512;18.050;2022-07-29T03:41:04;9.80;99.90
22081;DHT22;11207;59.512;18.050;2022-07-29T03:43:32;9.80;99.90
22081;DHT22;11207;59.512;18.050;2022-07-29T03:46:00;9.90;99.90
22081;DHT22;11207;59.512;18.050;2022-07-29T03:48:28;9.90;99.90
22081;DHT22;11207;59.512;18.050;2022-07-29T03:50:56;9.90;99.90
22081;DHT22;11207;59.512;18.050;2022-07-29T03:53:22;9.90;99.90
22081;DHT22;11207;59.512;18.050;2022-07-29T03:55:52;9.80;99.90
22081;DHT22;11207;59.512;18.050;2022-07-29T03:58:19;9.70;99.90
22081;DHT22;11207;59.512;18.050;2022-07-29T04:00:45;9.80;99.90
22081;DHT22;11207;59.512;18.050;2022-07-29T04:03:12;9.90;99.90
22081;DHT22;11207;59.512;18.050;2022-07-29T04:05:38;9.90;99.90
22081;DHT22;11207;59.512;18.050;2022-07-29T04:08:04;9.90;99.90
22081;DHT22;11207;59.512;18.050;2022-07-29T04:10:30;9.80;99.90
22081;DHT22;11207;59.512;18.050;2022-07-29T04:12:56;9.90;99.90
22081;DHT22;11207;59.512;18.050;2022-07-29T04:15:21;9.90;99.90
22081;DHT22;11207;59.512;18.050;2022-07-29T04:17:47;9.90;99.90
22081;DHT22;11207;59.512;18.050;2022-07-29T04:20:13;9.90;99.90
22081;DHT22;11207;59.512;18.050;2022-07-29T04:22:41;10.00;99.90
22081;DHT22;11207;59.512;18.050;2022-07-29T04:25:07;10.10;99.90
22081;DHT22;11207;59.512;18.050;2022-07-29T04:27:33;10.10;99.90
22081;DHT22;11207;59.512;18.050;2022-07-29T04:29:59;10.10;99.90
22081;DHT22;11207;59.512;18.050;2022-07-29T04:32:25;10.10;99.90
22081;DHT22;11207;59.512;18.050;2022-07-29T04:34:52;10.10;99.90
22081;DHT22;11207;59.512;18.050;2022-07-29T04:37:18;10.20;99.90
22081;DHT22;11207;59.512;18.050;2022-07-29T04:39:43;10.30;99.90
22081;DHT22;11207;59.512;18.050;2022-07-29T04:42:09;10.30;99.90
22081;DHT22;11207;59.512;18.050;2022-07-29T04:44:35;10.30;99.90
22081;DHT22;11207;59.512;18.050;2022-07-29T04:47:13;10.30;99.90
22081;DHT22;11207;59.512;18.050;2022-07-29T04:49:38;10.40;99.90
22081;DHT22;11207;59.512;18.050;2022-07-29T04:52:05;10.60;99.90
22081;DHT22;11207;59.512;18.050;2022-07-29T04:54:30;10.70;99.90
22081;DHT22;11207;59.512;18.050;2022-07-29T04:56:56;10.90;99.90
22081;DHT22;11207;59.512;18.050;2022-07-29T04:59:21;11.00;99.90
22081;DHT22;11207;59.512;18.050;2022-07-29T05:01:47;11.20;99.90
22081;DHT22;11207;59.512;18.050;2022-07-29T05:04:13;11.50;99.90
22081;DHT22;11207;59.512;18.050;2022-07-29T05:06:38;11.60;99.90
22081;DHT22;11207;59.512;18.050;2022-07-29T05:09:04;11.80;99.90
22081;DHT22;11207;59.512;18.050;2022-07-29T05:11:30;11.90;99.90
22081;DHT22;11207;59.512;18.050;2022-07-29T05:13:55;12.00;99.90
22081;DHT22;11207;59.512;18.050;2022-07-29T05:16:21;12.10;99.90
22081;DHT22;11207;59.512;18.050;2022-07-29T05:18:46;12.30;99.90
22081;DHT22;11207;59.512;18.050;2022-07-29T05:21:12;12.50;99.90
22081;DHT22;11207;59.512;18.050;2022-07-29T05:23:38;12.70;99.90
22081;DHT22;11207;59.512;18.050;2022-07-29T05:26:03;13.00;99.90
22081;DHT22;11207;59.512;18.050;2022-07-29T05:28:32;13.30;99.90
22081;DHT22;11207;59.512;18.050;2022-07-29T05:30:58;13.60;99.90
22081;DHT22;11207;59.512;18.050;2022-07-29T05:33:23;13.80;99.90
22081;DHT22;11207;59.512;18.050;2022-07-29T05:35:49;13.80;99.90
22081;DHT22;11207;59.512;18.050;2022-07-29T05:38:14;14.00;99.90
22081;DHT22;11207;59.512;18.050;2022-07-29T05:40:40;14.00;99.90
22081;DHT22;11207;59.512;18.050;2022-07-29T05:43:05;14.10;99.90
22081;DHT22;11207;59.512;18.050;2022-07-29T05:45:31;14.10;99.90
22081;DHT22;11207;59.512;18.050;2022-07-29T05:47:57;14.10;99.90
22081;DHT22;11207;59.512;18.050;2022-07-29T05:50:23;14.00;99.90
22081;DHT22;11207;59.512;18.050;2022-07-29T05:52:48;14.10;99.90
22081;DHT22;11207;59.512;18.050;2022-07-29T05:55:14;14.10;99.90
22081;DHT22;11207;59.512;18.050;2022-07-29T05:57:39;14.20;99.90
22081;DHT22;11207;59.512;18.050;2022-07-29T06:00:05;14.20;99.90
22081;DHT22;11207;59.512;18.050;2022-07-29T06:02:31;14.30;99.90
22081;DHT22;11207;59.512;18.050;2022-07-29T06:04:57;14.50;99.90
22081;DHT22;11207;59.512;18.050;2022-07-29T06:07:22;14.70;99.90
22081;DHT22;11207;59.512;18.050;2022-07-29T06:09:48;14.90;99.90
22081;DHT22;11207;59.512;18.050;2022-07-29T06:12:14;15.10;99.90
22081;DHT22;11207;59.512;18.050;2022-07-29T06:14:39;15.20;99.90
22081;DHT22;11207;59.512;18.050;2022-07-29T06:17:05;15.40;99.90
22081;DHT22;11207;59.512;18.050;2022-07-29T06:19:33;15.60;99.90
22081;DHT22;11207;59.512;18.050;2022-07-29T06:21:59;15.70;99.90
22081;DHT22;11207;59.512;18.050;2022-07-29T06:24:24;16.00;99.90
22081;DHT22;11207;59.512;18.050;2022-07-29T06:26:50;16.10;99.90
22081;DHT22;11207;59.512;18.050;2022-07-29T06:29:15;16.30;99.90
22081;DHT22;11207;59.512;18.050;2022-07-29T06:31:41;16.50;99.90
22081;DHT22;11207;59.512;18.050;2022-07-29T06:34:07;16.70;99.90
22081;DHT22;11207;59.512;18.050;2022-07-29T06:36:37;16.80;99.90
22081;DHT22;11207;59.512;18.050;2022-07-29T06:39:08;16.90;99.90
22081;DHT22;11207;59.512;18.050;2022-07-29T06:41:34;17.00;99.90
22081;DHT22;11207;59.512;18.050;2022-07-29T06:44:01;17.10;99.90
22081;DHT22;11207;59.512;18.050;2022-07-29T06:46:26;17.20;99.90
22081;DHT22;11207;59.512;18.050;2022-07-29T06:48:53;17.30;99.90
22081;DHT22;11207;59.512;18.050;2022-07-29T06:51:19;17.40;99.90
22081;DHT22;11207;59.512;18.050;2022-07-29T06:53:45;17.40;99.90
22081;DHT22;11207;59.512;18.050;2022-07-29T06:56:10;17.50;99.90
22081;DHT22;11207;59.512;18.050;2022-07-29T06:58:39;17.60;99.90
22081;DHT22;11207;59.512;18.050;2022-07-29T07:01:06;17.80;99.90
22081;DHT22;11207;59.512;18.050;2022-07-29T07:03:32;17.90;99.90
22081;DHT22;11207;59.512;18.050;2022-07-29T07:05:58;17.90;99.90
22081;DHT22;11207;59.512;18.050;2022-07-29T07:08:24;17.90;99.90
22081;DHT22;11207;59.512;18.050;2022-07-29T07:10:51;18.10;99.90
22081;DHT22;11207;59.512;18.050;2022-07-29T07:13:17;18.20;99.90
22081;DHT22;11207;59.512;18.050;2022-07-29T07:15:44;18.30;99.90
22081;DHT22;11207;59.512;18.050;2022-07-29T07:18:09;18.40;99.90
22081;DHT22;11207;59.512;18.050;2022-07-29T07:20:35;18.50;99.90
22081;DHT22;11207;59.512;18.050;2022-07-29T07:23:01;18.60;99.90
22081;DHT22;11207;59.512;18.050;2022-07-29T07:25:27;18.70;98.00
22081;DHT22;11207;59.512;18.050;2022-07-29T07:27:53;18.80;97.00
22081;DHT22;11207;59.512;18.050;2022-07-29T07:30:18;18.90;97.70
22081;DHT22;11207;59.512;18.050;2022-07-29T07:32:44;19.00;96.70
22081;DHT22;11207;59.512;18.050;2022-07-29T07:35:10;19.20;96.40
22081;DHT22;11207;59.512;18.050;2022-07-29T07:37:37;19.40;97.20
22081;DHT22;11207;59.512;18.050;2022-07-29T07:40:03;19.40;96.20
22081;DHT22;11207;59.512;18.050;2022-07-29T07:42:30;19.70;95.40
22081;DHT22;11207;59.512;18.050;2022-07-29T07:44:55;19.90;95.10
22081;DHT22;11207;59.512;18.050;2022-07-29T07:47:21;20.00;95.90
22081;DHT22;11207;59.512;18.050;2022-07-29T07:49:49;20.00;93.00
22081;DHT22;11207;59.512;18.050;2022-07-29T07:52:16;20.10;93.30
22081;DHT22;11207;59.512;18.050;2022-07-29T07:54:42;20.10;94.30
22081;DHT22;11207;59.512;18.050;2022-07-29T07:57:09;20.40;91.80
22081;DHT22;11207;59.512;18.050;2022-07-29T07:59:35;20.50;93.50
22081;DHT22;11207;59.512;18.050;2022-07-29T08:02:01;20.70;91.20
22081;DHT22;11207;59.512;18.050;2022-07-29T08:04:27;20.70;92.10
22081;DHT22;11207;59.512;18.050;2022-07-29T08:06:53;20.90;89.50
22081;DHT22;11207;59.512;18.050;2022-07-29T08:09:20;21.10;90.10
22081;DHT22;11207;59.512;18.050;2022-07-29T08:11:46;21.20;90.10
22081;DHT22;11207;59.512;18.050;2022-07-29T08:14:12;21.30;86.90
22081;DHT22;11207;59.512;18.050;2022-07-29T08:16:39;21.40;89.60
22081;DHT22;11207;59.512;18.050;2022-07-29T08:19:06;21.50;90.00
22081;DHT22;11207;59.512;18.050;2022-07-29T08:21:31;21.80;90.30
22081;DHT22;11207;59.512;18.050;2022-07-29T08:23:57;22.10;88.00
22081;DHT22;11207;59.512;18.050;2022-07-29T08:26:43;22.30;81.40
22081;DHT22;11207;59.512;18.050;2022-07-29T08:29:09;22.70;86.00
22081;DHT22;11207;59.512;18.050;2022-07-29T08:31:40;22.80;79.00
22081;DHT22;11207;59.512;18.050;2022-07-29T08:34:06;23.10;79.10
22081;DHT22;11207;59.512;18.050;2022-07-29T08:36:33;23.30;74.80
22081;DHT22;11207;59.512;18.050;2022-07-29T08:38:59;23.10;76.40
22081;DHT22;11207;59.512;18.050;2022-07-29T08:41:26;22.90;71.50
22081;DHT22;11207;59.512;18.050;2022-07-29T08:43:52;22.90;74.00
22081;DHT22;11207;59.512;18.050;2022-07-29T08:46:19;23.20;74.60
22081;DHT22;11207;59.512;18.050;2022-07-29T08:48:44;23.30;79.50
22081;DHT22;11207;59.512;18.050;2022-07-29T08:51:20;23.40;75.60
22081;DHT22;11207;59.512;18.050;2022-07-29T08:53:48;23.80;91.40
22081;DHT22;11207;59.512;18.050;2022-07-29T08:56:15;23.50;71.10
22081;DHT22;11207;59.512;18.050;2022-07-29T08:58:42;23.30;71.10
22081;DHT22;11207;59.512;18.050;2022-07-29T09:01:09;23.60;90.50
22081;DHT22;11207;59.512;18.050;2022-07-29T09:03:37;24.00;92.70
22081;DHT22;11207;59.512;18.050;2022-07-29T09:06:04;24.10;83.10
22081;DHT22;11207;59.512;18.050;2022-07-29T09:08:31;24.10;72.90
22081;DHT22;11207;59.512;18.050;2022-07-29T09:10:57;24.50;81.20
22081;DHT22;11207;59.512;18.050;2022-07-29T09:13:23;24.50;67.40
22081;DHT22;11207;59.512;18.050;2022-07-29T09:15:50;24.00;68.50
22081;DHT22;11207;59.512;18.050;2022-07-29T09:18:36;24.50;70.10
22081;DHT22;11207;59.512;18.050;2022-07-29T09:21:03;24.20;69.50
22081;DHT22;11207;59.512;18.050;2022-07-29T09:26:30;23.80;70.20
22081;DHT22;11207;59.512;18.050;2022-07-29T09:28:58;23.70;66.50
22081;DHT22;11207;59.512;18.050;2022-07-29T09:31:35;23.50;69.60
22081;DHT22;11207;59.512;18.050;2022-07-29T09:34:01;23.10;68.40
22081;DHT22;11207;59.512;18.050;2022-07-29T09:36:28;23.20;72.00
22081;DHT22;11207;59.512;18.050;2022-07-29T09:39:00;23.10;67.40
22081;DHT22;11207;59.512;18.050;2022-07-29T09:41:27;23.50;71.10
22081;DHT22;11207;59.512;18.050;2022-07-29T09:43:59;23.10;67.40
22081;DHT22;11207;59.512;18.050;2022-07-29T09:46:25;23.40;70.30
22081;DHT22;11207;59.512;18.050;2022-07-29T09:49:17;23.30;71.30
22081;DHT22;11207;59.512;18.050;2022-07-29T09:51:43;23.50;73.40
22081;DHT22;11207;59.512;18.050;2022-07-29T09:54:25;24.20;87.00
22081;DHT22;11207;59.512;18.050;2022-07-29T09:56:52;23.80;65.70
22081;DHT22;11207;59.512;18.050;2022-07-29T09:59:18;23.50;65.80
22081;DHT22;11207;59.512;18.050;2022-07-29T10:01:48;23.70;72.00
22081;DHT22;11207;59.512;18.050;2022-07-29T10:04:15;23.90;76.80
22081;DHT22;11207;59.512;18.050;2022-07-29T10:06:57;24.40;74.80
22081;DHT22;11207;59.512;18.050;2022-07-29T10:09:23;24.30;70.90
22081;DHT22;11207;59.512;18.050;2022-07-29T10:12:07;24.50;75.50
22081;DHT22;11207;59.512;18.050;2022-07-29T10:14:35;24.20;74.30
22081;DHT22;11207;59.512;18.050;2022-07-29T10:17:01;24.30;67.10
22081;DHT22;11207;59.512;18.050;2022-07-29T10:19:29;24.10;67.70
22081;DHT22;11207;59.512;18.050;2022-07-29T10:21:57;23.90;68.90
22081;DHT22;11207;59.512;18.050;2022-07-29T10:24:25;23.80;66.90
22081;DHT22;11207;59.512;18.050;2022-07-29T10:26:52;24.20;71.70
22081;DHT22;11207;59.512;18.050;2022-07-29T10:29:18;24.30;64.40
22081;DHT22;11207;59.512;18.050;2022-07-29T10:32:11;24.40;73.20
22081;DHT22;11207;59.512;18.050;2022-07-29T10:37:28;24.00;67.50
22081;DHT22;11207;59.512;18.050;2022-07-29T10:40:09;24.20;71.60
22081;DHT22;11207;59.512;18.050;2022-07-29T10:42:55;24.30;72.10
22081;DHT22;11207;59.512;18.050;2022-07-29T10:45:25;24.80;68.50
22081;DHT22;11207;59.512;18.050;2022-07-29T10:48:03;25.30;67.40
22081;DHT22;11207;59.512;18.050;2022-07-29T10:53:23;24.60;60.70
22081;DHT22;11207;59.512;18.050;2022-07-29T10:55:49;24.90;73.70
22081;DHT22;11207;59.512;18.050;2022-07-29T10:58:22;25.90;75.10
22081;DHT22;11207;59.512;18.050;2022-07-29T11:00:52;26.40;68.90
22081;DHT22;11207;59.512;18.050;2022-07-29T11:06:07;25.40;61.80
22081;DHT22;11207;59.512;18.050;2022-07-29T11:08:32;25.30;67.50
22081;DHT22;11207;59.512;18.050;2022-07-29T11:11:31;24.80;57.20
22081;DHT22;11207;59.512;18.050;2022-07-29T11:13:57;24.50;60.00
22081;DHT22;11207;59.512;18.050;2022-07-29T11:16:23;24.50;61.90
22081;DHT22;11207;59.512;18.050;2022-07-29T11:21:41;25.00;57.20
22081;DHT22;11207;59.512;18.050;2022-07-29T11:24:19;25.30;62.90
22081;DHT22;11207;59.512;18.050;2022-07-29T11:27:09;26.10;66.20
22081;DHT22;11207;59.512;18.050;2022-07-29T11:29:47;26.80;61.90
22081;DHT22;11207;59.512;18.050;2022-07-29T11:32:15;26.60;55.80
22081;DHT22;11207;59.512;18.050;2022-07-29T11:34:43;26.50;57.40
22081;DHT22;11207;59.512;18.050;2022-07-29T11:45:04;27.20;68.40
22081;DHT22;11207;59.512;18.050;2022-07-29T11:47:35;27.20;53.70
22081;DHT22;11207;59.512;18.050;2022-07-29T11:50:03;26.60;55.70
22081;DHT22;11207;59.512;18.050;2022-07-29T11:52:34;26.00;54.30
22081;DHT22;11207;59.512;18.050;2022-07-29T11:55:04;26.30;55.70
22081;DHT22;11207;59.512;18.050;2022-07-29T11:57:30;25.70;54.30
22081;DHT22;11207;59.512;18.050;2022-07-29T11:59:57;26.40;60.00
22081;DHT22;11207;59.512;18.050;2022-07-29T12:02:23;27.10;61.50
22081;DHT22;11207;59.512;18.050;2022-07-29T12:04:53;27.50;54.20
22081;DHT22;11207;59.512;18.050;2022-07-29T12:07:27;27.20;53.20
22081;DHT22;11207;59.512;18.050;2022-07-29T12:09:53;27.00;58.10
22081;DHT22;11207;59.512;18.050;2022-07-29T12:12:19;26.90;52.00
22081;DHT22;11207;59.512;18.050;2022-07-29T12:14:46;26.60;55.00
22081;DHT22;11207;59.512;18.050;2022-07-29T12:17:36;26.30;51.20
22081;DHT22;11207;59.512;18.050;2022-07-29T12:20:04;25.80;51.20
22081;DHT22;11207;59.512;18.050;2022-07-29T12:22:32;25.50;53.00
22081;DHT22;11207;59.512;18.050;2022-07-29T12:25:17;25.20;54.80
22081;DHT22;11207;59.512;18.050;2022-07-29T12:27:44;25.20;63.30
22081;DHT22;11207;59.512;18.050;2022-07-29T12:30:15;25.90;60.00
22081;DHT22;11207;59.512;18.050;2022-07-29T12:32:42;26.30;71.70
22081;DHT22;11207;59.512;18.050;2022-07-29T12:37:40;27.50;59.30
22081;DHT22;11207;59.512;18.050;2022-07-29T12:40:08;27.20;58.50
22081;DHT22;11207;59.512;18.050;2022-07-29T12:42:34;28.00;73.40
22081;DHT22;11207;59.512;18.050;2022-07-29T12:45:02;27.60;52.60
22081;DHT22;11207;59.512;18.050;2022-07-29T12:47:28;26.90;52.30
22081;DHT22;11207;59.512;18.050;2022-07-29T12:50:12;26.90;58.20
22081;DHT22;11207;59.512;18.050;2022-07-29T12:52:39;26.30;51.00
22081;DHT22;11207;59.512;18.050;2022-07-29T12:55:05;25.90;52.60
22081;DHT22;11207;59.512;18.050;2022-07-29T12:57:31;25.70;53.20
22081;DHT22;11207;59.512;18.050;2022-07-29T13:02:36;25.10;54.90
22081;DHT22;11207;59.512;18.050;2022-07-29T13:05:03;25.10;53.20
22081;DHT22;11207;59.512;18.050;2022-07-29T13:07:31;24.80;53.60
22081;DHT22;11207;59.512;18.050;2022-07-29T13:10:13;24.50;54.50
22081;DHT22;11207;59.512;18.050;2022-07-29T13:13:04;24.50;56.00
22081;DHT22;11207;59.512;18.050;2022-07-29T13:15:30;24.70;54.40
22081;DHT22;11207;59.512;18.050;2022-07-29T13:17:56;24.50;55.80
22081;DHT22;11207;59.512;18.050;2022-07-29T13:20:25;24.30;54.50
22081;DHT22;11207;59.512;18.050;2022-07-29T13:22:52;24.20;54.00
22081;DHT22;11207;59.512;18.050;2022-07-29T13:25:44;24.10;55.20
22081;DHT22;11207;59.512;18.050;2022-07-29T13:28:10;24.30;53.10
22081;DHT22;11207;59.512;18.050;2022-07-29T13:30:37;24.10;54.40
22081;DHT22;11207;59.512;18.050;2022-07-29T13:33:03;24.10;55.70
22081;DHT22;11207;59.512;18.050;2022-07-29T13:35:28;23.80;55.30
22081;DHT22;11207;59.512;18.050;2022-07-29T13:37:55;24.00;60.40
22081;DHT22;11207;59.512;18.050;2022-07-29T13:40:21;24.10;58.40
22081;DHT22;11207;59.512;18.050;2022-07-29T13:42:46;23.90;55.90
22081;DHT22;11207;59.512;18.050;2022-07-29T13:45:13;23.80;57.90
22081;DHT22;11207;59.512;18.050;2022-07-29T13:47:39;23.80;55.90
22081;DHT22;11207;59.512;18.050;2022-07-29T13:50:06;23.80;57.20
22081;DHT22;11207;59.512;18.050;2022-07-29T13:52:32;23.60;56.80
22081;DHT22;11207;59.512;18.050;2022-07-29T13:54:58;23.40;57.30
22081;DHT22;11207;59.512;18.050;2022-07-29T13:57:24;23.20;58.60
22081;DHT22;11207;59.512;18.050;2022-07-29T13:59:49;23.00;58.70
22081;DHT22;11207;59.512;18.050;2022-07-29T14:02:16;22.80;61.10
22081;DHT22;11207;59.512;18.050;2022-07-29T14:04:42;22.80;59.60
22081;DHT22;11207;59.512;18.050;2022-07-29T14:07:07;22.90;58.10
22081;DHT22;11207;59.512;18.050;2022-07-29T14:09:33;23.10;58.40
22081;DHT22;11207;59.512;18.050;2022-07-29T14:11:59;23.20;58.00
22081;DHT22;11207;59.512;18.050;2022-07-29T14:14:24;23.50;60.00
22081;DHT22;11207;59.512;18.050;2022-07-29T14:16:50;23.50;57.60
22081;DHT22;11207;59.512;18.050;2022-07-29T14:19:16;23.50;55.70
22081;DHT22;11207;59.512;18.050;2022-07-29T14:21:41;23.30;55.90
22081;DHT22;11207;59.512;18.050;2022-07-29T14:24:07;23.50;62.10
22081;DHT22;11207;59.512;18.050;2022-07-29T14:26:33;23.50;58.60
22081;DHT22;11207;59.512;18.050;2022-07-29T14:28:58;23.90;61.00
22081;DHT22;11207;59.512;18.050;2022-07-29T14:31:24;24.10;59.20
22081;DHT22;11207;59.512;18.050;2022-07-29T14:33:50;24.30;57.40
22081;DHT22;11207;59.512;18.050;2022-07-29T14:36:15;24.10;53.40
22081;DHT22;11207;59.512;18.050;2022-07-29T14:38:41;24.00;53.70
22081;DHT22;11207;59.512;18.050;2022-07-29T14:41:07;23.60;54.60
22081;DHT22;11207;59.512;18.050;2022-07-29T14:43:33;23.60;57.90
22081;DHT22;11207;59.512;18.050;2022-07-29T14:46:00;23.50;55.30
22081;DHT22;11207;59.512;18.050;2022-07-29T14:48:25;23.30;55.30
22081;DHT22;11207;59.512;18.050;2022-07-29T14:50:51;23.20;57.10
22081;DHT22;11207;59.512;18.050;2022-07-29T14:53:17;23.10;59.30
22081;DHT22;11207;59.512;18.050;2022-07-29T14:55:44;23.10;60.60
22081;DHT22;11207;59.512;18.050;2022-07-29T14:58:09;23.20;57.90
22081;DHT22;11207;59.512;18.050;2022-07-29T15:00:35;23.20;56.40
22081;DHT22;11207;59.512;18.050;2022-07-29T15:03:02;23.40;55.90
22081;DHT22;11207;59.512;18.050;2022-07-29T15:05:28;23.60;57.10
22081;DHT22;11207;59.512;18.050;2022-07-29T15:07:54;23.70;56.70
22081;DHT22;11207;59.512;18.050;2022-07-29T15:10:21;23.70;55.80
22081;DHT22;11207;59.512;18.050;2022-07-29T15:12:46;23.50;57.00
22081;DHT22;11207;59.512;18.050;2022-07-29T15:15:12;23.60;58.30
22081;DHT22;11207;59.512;18.050;2022-07-29T15:17:38;23.80;56.90
22081;DHT22;11207;59.512;18.050;2022-07-29T15:20:04;23.90;57.30
22081;DHT22;11207;59.512;18.050;2022-07-29T15:22:30;24.00;57.50
22081;DHT22;11207;59.512;18.050;2022-07-29T15:24:55;24.20;56.60
22081;DHT22;11207;59.512;18.050;2022-07-29T15:27:21;24.30;55.10
22081;DHT22;11207;59.512;18.050;2022-07-29T15:29:47;24.20;54.40
22081;DHT22;11207;59.512;18.050;2022-07-29T15:32:12;24.20;55.20
22081;DHT22;11207;59.512;18.050;2022-07-29T15:34:39;24.10;55.50
22081;DHT22;11207;59.512;18.050;2022-07-29T15:37:05;23.90;57.00
22081;DHT22;11207;59.512;18.050;2022-07-29T15:39:31;23.50;55.00
22081;DHT22;11207;59.512;18.050;2022-07-29T15:41:57;23.40;58.70
22081;DHT22;11207;59.512;18.050;2022-07-29T15:44:24;23.30;60.00
22081;DHT22;11207;59.512;18.050;2022-07-29T15:46:50;23.00;63.00
22081;DHT22;11207;59.512;18.050;2022-07-29T15:49:40;22.90;64.80
22081;DHT22;11207;59.512;18.050;2022-07-29T15:52:09;23.10;65.10
22081;DHT22;11207;59.512;18.050;2022-07-29T15:54:37;23.00;62.90
22081;DHT22;11207;59.512;18.050;2022-07-29T15:57:04;23.10;63.40
22081;DHT22;11207;59.512;18.050;2022-07-29T15:59:31;23.00;62.10
22081;DHT22;11207;59.512;18.050;2022-07-29T16:01:57;23.00;64.40
22081;DHT22;11207;59.512;18.050;2022-07-29T16:04:23;22.90;65.40
22081;DHT22;11207;59.512;18.050;2022-07-29T16:06:49;22.70;67.90